Time;durP1;ratioP1;P1;durP2;ratioP2;P2;SDS_P1;SDS_P2;PMS_P1;PMS_P2;Temp;Humidity;BMP_temperature;BMP_pressure;BME280_temperature;BME280_humidity;BME280_pressure;Samples;Min_cycle;Max_cycle;Signal;HPM_P1;HPM_P2
2021/06/06 00:01:44;;;;;;;24.33;17.35;;;19.00;99.90;;;;;;5054282;28;20059;-66
2021/06/06 00:04:15;;;;;;;22.77;18.40;;;19.10;99.90;;;;;;5071660;28;20021;-67
2021/06/06 00:06:42;;;;;;;18.85;14.60;;;19.10;99.90;;;;;;5054163;28;20078;-65
2021/06/06 00:09:13;;;;;;;21.95;17.02;;;19.10;99.90;;;;;;5071780;28;20082;-65
2021/06/06 00:11:40;;;;;;;;;;;19.10;99.90;;;;;;5054276;28;20202;-68
2021/06/06 00:14:12;;;;;;;27.95;18.27;;;19.10;99.90;;;;;;5071512;28;19916;-65
2021/06/06 00:16:48;;;;;;;24.23;18.00;;;19.10;99.90;;;;;;5072125;28;20111;-66
2021/06/06 00:19:15;;;;;;;28.95;18.92;;;19.10;99.90;;;;;;5053379;28;20127;-66
2021/06/06 00:21:41;;;;;;;26.13;19.48;;;19.00;99.90;;;;;;5071681;28;20380;-66
2021/06/06 00:24:10;;;;;;;27.42;20.27;;;19.10;99.90;;;;;;5072059;28;20082;-65
2021/06/06 00:26:36;;;;;;;27.05;19.83;;;19.20;99.90;;;;;;5053798;28;20486;-65
2021/06/06 00:29:03;;;;;;;24.17;18.30;;;19.20;99.90;;;;;;5053589;28;20027;-65
2021/06/06 00:31:28;;;;;;;29.77;20.42;;;19.20;99.90;;;;;;5071128;28;20020;-65
2021/06/06 00:33:54;;;;;;;25.55;18.20;;;19.10;99.90;;;;;;5071427;28;20466;-65
2021/06/06 00:36:22;;;;;;;30.63;20.92;;;19.10;99.90;;;;;;5052789;28;20041;-66
2021/06/06 00:38:48;;;;;;;27.67;19.55;;;19.10;99.90;;;;;;5071644;28;20364;-66
2021/06/06 00:41:16;;;;;;;30.35;21.52;;;19.00;99.90;;;;;;5052866;28;20536;-66
2021/06/06 00:43:42;;;;;;;33.15;21.92;;;19.00;99.90;;;;;;5071793;28;20028;-66
2021/06/06 00:46:09;;;;;;;29.08;20.67;;;19.10;99.90;;;;;;5071339;28;20051;-65
2021/06/06 00:48:35;;;;;;;26.98;19.13;;;19.10;99.90;;;;;;5059478;28;20155;-66
2021/06/06 00:51:08;;;;;;;32.97;22.60;;;19.10;99.90;;;;;;5034080;28;20049;-66
2021/06/06 00:53:41;;;;;;;31.30;23.08;;;19.10;99.90;;;;;;5032621;28;20186;-66
2021/06/06 00:56:13;;;;;;;30.15;22.20;;;19.20;99.90;;;;;;5033431;28;20106;-66
2021/06/06 00:58:40;;;;;;;31.48;23.67;;;19.00;99.90;;;;;;5033249;28;20125;-66
2021/06/06 01:01:06;;;;;;;31.30;21.85;;;19.00;99.90;;;;;;5051379;28;20057;-66
2021/06/06 01:03:32;;;;;;;29.42;22.63;;;19.00;99.90;;;;;;5032807;28;20036;-66
2021/06/06 01:06:13;;;;;;;31.40;22.95;;;19.00;99.90;;;;;;5051442;28;20033;-66
2021/06/06 01:08:40;;;;;;;30.02;22.90;;;19.00;99.90;;;;;;5051317;28;20033;-66
2021/06/06 01:11:40;;;;;;;32.33;22.50;;;19.10;99.90;;;;;;5051333;28;20033;-66
2021/06/06 01:14:12;;;;;;;29.33;22.33;;;19.10;99.90;;;;;;5051188;28;20028;-66
2021/06/06 01:16:46;;;;;;;32.90;22.88;;;19.10;99.90;;;;;;5050174;28;20025;-66
2021/06/06 01:19:34;;;;;;;27.17;20.55;;;19.10;99.90;;;;;;5051428;28;20040;-66
2021/06/06 01:22:24;;;;;;;31.58;21.98;;;19.10;99.90;;;;;;5050770;28;20466;-66
2021/06/06 01:25:03;;;;;;;34.55;22.83;;;19.20;99.90;;;;;;5050871;28;20029;-66
2021/06/06 01:27:30;;;;;;;30.70;23.27;;;19.10;99.90;;;;;;5049988;28;20360;-66
2021/06/06 01:30:06;;;;;;;30.85;22.98;;;19.20;99.90;;;;;;5050828;28;20028;-65
2021/06/06 01:32:57;;;;;;;30.63;23.60;;;19.30;99.90;;;;;;5050201;28;20029;-66
2021/06/06 01:35:35;;;;;;;29.27;22.80;;;19.20;99.90;;;;;;5050010;28;20071;-66
2021/06/06 01:38:09;;;;;;;35.90;24.77;;;19.10;99.90;;;;;;5050925;28;20055;-66
2021/06/06 01:40:40;;;;;;;30.20;22.15;;;19.10;99.90;;;;;;5050097;28;20438;-66
2021/06/06 01:43:10;;;;;;;38.57;23.97;;;19.10;99.90;;;;;;5032893;28;20083;-66
2021/06/06 01:45:42;;;;;;;30.67;21.40;;;19.20;99.90;;;;;;5032205;28;20726;-66
2021/06/06 01:48:11;;;;;;;34.58;24.67;;;19.10;99.90;;;;;;5050636;28;20040;-66
2021/06/06 01:50:46;;;;;;;37.60;25.30;;;19.10;99.90;;;;;;5031685;28;20032;-64
2021/06/06 01:53:14;;;;;;;38.13;24.83;;;19.10;99.90;;;;;;5050216;28;20538;-65
2021/06/06 01:55:45;;;;;;;33.90;24.90;;;19.10;99.90;;;;;;5050202;28;20033;-66
2021/06/06 01:58:12;;;;;;;31.33;23.38;;;19.10;99.90;;;;;;5032244;28;20041;-66
2021/06/06 02:00:50;;;;;;;34.65;25.50;;;19.10;99.90;;;;;;5049822;28;20044;-65
2021/06/06 02:03:16;;;;;;;31.77;24.30;;;19.20;99.90;;;;;;5050490;28;20559;-77
2021/06/06 02:05:43;;;;;;;32.88;25.08;;;19.10;99.90;;;;;;5050414;28;20032;-65
2021/06/06 02:08:15;;;;;;;33.85;24.48;;;19.10;99.90;;;;;;5050403;28;20048;-65
2021/06/06 02:10:49;;;;;;;38.53;27.23;;;19.00;99.90;;;;;;5049376;28;20052;-65
2021/06/06 02:13:26;;;;;;;35.40;24.25;;;19.10;99.90;;;;;;5049928;28;20017;-65
2021/06/06 02:15:56;;;;;;;35.78;25.60;;;19.00;99.90;;;;;;5049903;28;20119;-66
2021/06/06 02:18:25;;;;;;;37.20;27.23;;;19.00;99.90;;;;;;5049727;28;20032;-66
2021/06/06 02:20:51;;;;;;;39.17;28.38;;;19.00;99.90;;;;;;5032105;28;20033;-65
2021/06/06 02:23:21;;;;;;;40.22;27.73;;;19.00;99.90;;;;;;5050076;28;20107;-77
2021/06/06 02:25:50;;;;;;;36.05;27.27;;;18.90;99.90;;;;;;5049956;28;20470;-65
2021/06/06 02:28:28;;;;;;;35.92;25.73;;;18.90;99.90;;;;;;5049801;28;20111;-65
2021/06/06 02:31:09;;;;;;;40.53;28.15;;;19.00;99.90;;;;;;5050053;28;20516;-66
2021/06/06 02:33:44;;;;;;;41.70;30.40;;;18.90;99.90;;;;;;5015022;28;20493;-66
2021/06/06 02:36:13;;;;;;;41.63;28.67;;;18.90;99.90;;;;;;5033877;28;20128;-66
2021/06/06 02:38:50;;;;;;;43.83;29.27;;;18.90;99.90;;;;;;5053353;28;20039;-66
2021/06/06 02:41:21;;;;;;;39.83;29.13;;;19.00;99.90;;;;;;5054106;28;20066;-65
2021/06/06 02:44:22;;;;;;;42.58;30.23;;;19.00;99.90;;;;;;5054285;28;20029;-66
2021/06/06 02:46:50;;;;;;;41.28;30.55;;;18.90;99.90;;;;;;5040041;28;20076;-66
2021/06/06 02:49:38;;;;;;;42.70;31.10;;;18.90;99.90;;;;;;5054005;28;20028;-66
2021/06/06 02:52:07;;;;;;;39.70;30.10;;;18.80;99.90;;;;;;5035270;28;20064;-66
2021/06/06 02:54:38;;;;;;;42.30;32.13;;;18.80;99.90;;;;;;5035219;28;20056;-66
2021/06/06 02:57:08;;;;;;;43.78;30.98;;;18.70;99.90;;;;;;5035715;28;20079;-66
2021/06/06 02:59:46;;;;;;;46.72;31.83;;;18.70;99.90;;;;;;5052935;28;20036;-66
2021/06/06 03:02:16;;;;;;;46.25;32.05;;;18.70;99.90;;;;;;5035503;28;20096;-66
2021/06/06 03:04:47;;;;;;;45.40;32.42;;;18.70;99.90;;;;;;5034901;28;20033;-66
2021/06/06 03:07:36;;;;;;;46.75;33.47;;;18.70;99.90;;;;;;5035450;28;20439;-65
2021/06/06 03:10:04;;;;;;;46.03;33.33;;;18.60;99.90;;;;;;5052839;28;20048;-65
2021/06/06 03:12:30;;;;;;;47.33;35.17;;;18.40;99.90;;;;;;5052201;28;20025;-66
2021/06/06 03:15:00;;;;;;;44.72;31.15;;;18.40;99.90;;;;;;5034943;28;20440;-65
2021/06/06 03:17:31;;;;;;;44.42;31.42;;;18.50;99.90;;;;;;5034160;28;20029;-66
2021/06/06 03:20:00;;;;;;;45.08;32.85;;;18.50;99.90;;;;;;5034936;28;20029;-65
2021/06/06 03:22:30;;;;;;;45.80;32.83;;;18.50;99.90;;;;;;5052456;28;20437;-66
2021/06/06 03:25:00;;;;;;;47.28;33.85;;;18.40;99.90;;;;;;5052641;28;20332;-66
2021/06/06 03:27:32;;;;;;;47.42;32.40;;;18.40;99.90;;;;;;5052168;28;20090;-66
2021/06/06 03:30:26;;;;;;;47.97;32.53;;;18.50;99.90;;;;;;5052472;28;20025;-65
2021/06/06 03:32:54;;;;;;;45.05;32.50;;;18.50;99.90;;;;;;5052576;28;20554;-65
2021/06/06 03:35:20;;;;;;;46.42;32.85;;;18.50;99.90;;;;;;5052741;28;20025;-65
2021/06/06 03:37:45;;;;;;;46.63;33.97;;;18.50;99.90;;;;;;5033634;28;20032;-65
2021/06/06 03:40:12;;;;;;;48.15;35.42;;;18.40;99.90;;;;;;5034429;28;20029;-65
2021/06/06 03:42:38;;;;;;;44.30;33.60;;;18.40;99.90;;;;;;5033634;28;20029;-66
2021/06/06 03:45:07;;;;;;;45.33;33.58;;;18.40;99.90;;;;;;5034491;28;20102;-66
2021/06/06 03:47:33;;;;;;;47.75;33.00;;;18.40;99.90;;;;;;5050557;28;20033;-65
2021/06/06 03:49:59;;;;;;;44.03;31.60;;;18.50;99.90;;;;;;5052295;28;20032;-65
2021/06/06 03:52:25;;;;;;;44.72;32.08;;;18.50;99.90;;;;;;5051813;28;20080;-66
2021/06/06 03:54:53;;;;;;;43.95;32.42;;;18.50;99.90;;;;;;5052489;28;20451;-66
2021/06/06 03:57:19;;;;;;;44.38;31.85;;;18.60;99.90;;;;;;5051976;28;20029;-65
2021/06/06 03:59:45;;;;;;;48.47;32.70;;;18.60;99.90;;;;;;5051558;28;20037;-65
2021/06/06 04:02:11;;;;;;;45.63;32.70;;;18.60;99.90;;;;;;5051978;28;20029;-65
2021/06/06 04:04:37;;;;;;;46.15;33.03;;;18.60;99.90;;;;;;5033581;28;20024;-65
2021/06/06 04:07:03;;;;;;;45.53;32.80;;;18.50;99.90;;;;;;5034064;28;20044;-65
2021/06/06 04:09:29;;;;;;;46.72;32.35;;;18.60;99.90;;;;;;5051497;28;20031;-65
2021/06/06 04:11:54;;;;;;;45.08;31.90;;;18.60;99.90;;;;;;5034117;28;20452;-65
2021/06/06 04:14:20;;;;;;;41.60;29.25;;;18.50;99.90;;;;;;5052156;28;20027;-65
2021/06/06 04:16:45;;;;;;;44.65;31.40;;;18.50;99.90;;;;;;5051056;28;20037;-66
2021/06/06 04:19:11;;;;;;;39.63;30.63;;;18.60;99.90;;;;;;5051741;28;20035;-65
2021/06/06 04:21:37;;;;;;;47.10;31.90;;;18.60;99.90;;;;;;5033287;28;20120;-66
2021/06/06 04:24:03;;;;;;;44.63;32.13;;;18.60;99.90;;;;;;5051847;28;20542;-66
2021/06/06 04:26:29;;;;;;;40.03;28.98;;;18.50;99.90;;;;;;5033427;28;20029;-64
2021/06/06 04:28:55;;;;;;;44.10;29.58;;;18.50;99.90;;;;;;5033853;28;20052;-65
2021/06/06 04:31:21;;;;;;;40.40;30.75;;;18.50;99.90;;;;;;5051744;28;20025;-66
2021/06/06 04:33:47;;;;;;;38.67;28.52;;;18.60;99.90;;;;;;5033208;28;20025;-66
2021/06/06 04:36:14;;;;;;;43.63;30.33;;;18.60;99.90;;;;;;5033755;28;20123;-66
2021/06/06 04:38:39;;;;;;;41.13;28.15;;;18.60;99.90;;;;;;5051239;28;20073;-66
2021/06/06 04:41:11;;;;;;;39.80;29.50;;;18.60;99.90;;;;;;5052148;28;20021;-65
2021/06/06 04:43:37;;;;;;;36.13;27.10;;;18.60;99.90;;;;;;5051209;28;20033;-65
2021/06/06 04:46:04;;;;;;;38.95;28.25;;;18.70;99.90;;;;;;5051400;28;20110;-65
2021/06/06 04:48:36;;;;;;;34.67;26.50;;;18.70;99.90;;;;;;5033067;28;20127;-65
2021/06/06 04:51:06;;;;;;;35.35;25.50;;;18.80;99.90;;;;;;5051358;28;20093;-66
2021/06/06 04:53:32;;;;;;;34.70;25.48;;;18.80;99.90;;;;;;5032920;28;20036;-66
2021/06/06 04:55:58;;;;;;;35.58;25.27;;;18.80;99.90;;;;;;5033478;28;20056;-66
2021/06/06 04:58:26;;;;;;;34.92;25.77;;;18.70;99.90;;;;;;5032955;28;20118;-66
2021/06/06 05:00:52;;;;;;;38.95;28.08;;;18.80;99.90;;;;;;5033337;28;20059;-65
2021/06/06 05:03:19;;;;;;;34.33;23.85;;;18.80;99.90;;;;;;5033375;28;20581;-66
2021/06/06 05:05:46;;;;;;;30.25;21.08;;;18.80;99.90;;;;;;5032741;28;20074;-65
2021/06/06 05:08:14;;;;;;;31.50;23.15;;;18.80;99.90;;;;;;5032769;28;20040;-66
2021/06/06 05:10:44;;;;;;;31.30;23.25;;;18.90;99.90;;;;;;5050669;28;20032;-65
2021/06/06 05:13:10;;;;;;;28.00;21.88;;;18.80;99.90;;;;;;5051183;28;20017;-65
2021/06/06 05:15:37;;;;;;;29.05;21.23;;;18.80;99.90;;;;;;5032659;28;20474;-66
2021/06/06 05:18:04;;;;;;;29.52;21.85;;;18.80;99.90;;;;;;5051306;28;20390;-66
2021/06/06 05:20:36;;;;;;;27.67;21.85;;;18.80;99.90;;;;;;5050185;28;20474;-66
2021/06/06 05:23:02;;;;;;;26.60;20.42;;;18.60;99.90;;;;;;5051126;28;20103;-66
2021/06/06 05:25:28;;;;;;;27.88;20.58;;;18.80;99.90;;;;;;5032996;28;20032;-66
2021/06/06 05:27:53;;;;;;;25.85;19.73;;;18.80;99.90;;;;;;5050996;28;20474;-65
2021/06/06 05:30:24;;;;;;;22.45;19.05;;;18.90;99.90;;;;;;5050459;28;20021;-65
2021/06/06 05:32:51;;;;;;;24.80;18.40;;;18.90;99.90;;;;;;5050229;28;20055;-66
2021/06/06 05:35:18;;;;;;;21.23;17.23;;;18.90;99.90;;;;;;5050866;28;20044;-66
2021/06/06 05:37:44;;;;;;;24.45;17.63;;;18.90;99.90;;;;;;5032186;28;20355;-66
2021/06/06 05:40:10;;;;;;;22.63;16.80;;;19.00;99.90;;;;;;5032433;28;20124;-67
2021/06/06 05:42:36;;;;;;;22.65;17.33;;;19.00;99.90;;;;;;5032171;28;20052;-67
2021/06/06 05:45:03;;;;;;;21.23;16.60;;;19.00;99.90;;;;;;5032840;28;20115;-67
2021/06/06 05:47:28;;;;;;;17.10;14.15;;;19.00;99.90;;;;;;5032826;28;20082;-66
2021/06/06 05:49:54;;;;;;;18.98;13.75;;;19.00;99.90;;;;;;5050416;28;20025;-66
2021/06/06 05:52:20;;;;;;;18.15;14.35;;;19.00;99.90;;;;;;5050773;28;20143;-67
2021/06/06 05:54:45;;;;;;;19.25;14.70;;;19.00;99.90;;;;;;5031872;28;20032;-67
2021/06/06 05:57:11;;;;;;;18.48;14.20;;;19.10;99.90;;;;;;5032717;28;20032;-67
2021/06/06 05:59:36;;;;;;;17.63;14.43;;;19.10;99.90;;;;;;5049836;28;20455;-67
2021/06/06 06:02:03;;;;;;;16.45;12.50;;;19.10;99.90;;;;;;5050154;28;20075;-66
2021/06/06 06:04:28;;;;;;;12.85;10.65;;;19.10;99.90;;;;;;5050130;28;20040;-66
2021/06/06 06:06:54;;;;;;;12.77;9.77;;;19.10;99.90;;;;;;5031877;28;20331;-67
2021/06/06 06:09:20;;;;;;;10.45;9.25;;;19.00;99.90;;;;;;5050130;28;20032;-67
2021/06/06 06:11:45;;;;;;;10.90;8.88;;;19.20;99.90;;;;;;5034577;28;20055;-66
2021/06/06 06:14:11;;;;;;;10.80;8.65;;;19.30;99.90;;;;;;5054643;28;20036;-66
2021/06/06 06:16:38;;;;;;;9.52;8.07;;;19.20;99.90;;;;;;5053771;28;20043;-65
2021/06/06 06:19:06;;;;;;;11.10;8.23;;;19.30;99.90;;;;;;5036290;28;20037;-65
2021/06/06 06:21:33;;;;;;;8.63;6.70;;;19.30;99.90;;;;;;5054170;28;20457;-76
2021/06/06 06:23:59;;;;;;;9.93;7.80;;;19.30;99.90;;;;;;5035976;28;20029;-65
2021/06/06 06:26:25;;;;;;;7.88;6.38;;;19.40;99.90;;;;;;5036300;28;20381;-65
2021/06/06 06:28:52;;;;;;;8.93;7.03;;;19.40;99.90;;;;;;5053275;28;20021;-65
2021/06/06 06:31:18;;;;;;;9.75;7.05;;;19.40;99.90;;;;;;5036004;28;20048;-66
2021/06/06 06:33:45;;;;;;;8.40;7.15;;;19.40;99.90;;;;;;5053096;28;20043;-65
2021/06/06 06:36:13;;;;;;;8.90;7.25;;;19.40;99.90;;;;;;5035949;28;20425;-65
2021/06/06 06:38:39;;;;;;;8.63;6.85;;;19.50;99.90;;;;;;5053472;28;20047;-66
2021/06/06 06:41:07;;;;;;;8.40;7.53;;;19.40;99.90;;;;;;5053854;28;20028;-65
2021/06/06 06:43:33;;;;;;;8.00;6.90;;;19.30;99.90;;;;;;5053489;28;20052;-64
2021/06/06 06:45:59;;;;;;;8.07;6.47;;;19.30;99.90;;;;;;5035446;28;20029;-65
2021/06/06 06:48:27;;;;;;;8.30;7.22;;;19.30;99.90;;;;;;5035746;28;20178;-65
2021/06/06 06:50:54;;;;;;;8.52;6.25;;;19.30;99.90;;;;;;5034345;28;20545;-65
2021/06/06 06:53:22;;;;;;;7.53;6.13;;;19.50;99.90;;;;;;5053613;28;20025;-65
2021/06/06 06:55:48;;;;;;;10.60;7.38;;;19.50;99.90;;;;;;5052690;28;20152;-65
2021/06/06 06:58:14;;;;;;;7.53;5.55;;;19.60;99.90;;;;;;5053371;28;20418;-65
2021/06/06 07:00:45;;;;;;;6.80;6.07;;;19.70;99.90;;;;;;5052711;28;20025;-66
2021/06/06 07:03:14;;;;;;;7.55;6.53;;;19.60;99.90;;;;;;5052915;28;20107;-66
2021/06/06 07:05:41;;;;;;;7.93;6.22;;;19.60;99.90;;;;;;5052807;28;20348;-67
2021/06/06 07:08:09;;;;;;;9.07;6.47;;;19.60;99.90;;;;;;5035244;28;20442;-67
2021/06/06 07:10:38;;;;;;;7.35;6.00;;;19.70;99.90;;;;;;5052374;28;20120;-77
2021/06/06 07:13:03;;;;;;;7.50;6.25;;;19.70;99.90;;;;;;5053254;28;20083;-65
2021/06/06 07:15:29;;;;;;;9.68;6.65;;;19.60;99.90;;;;;;5053159;28;20021;-66
2021/06/06 07:17:55;;;;;;;10.18;5.72;;;19.60;99.90;;;;;;5052189;28;20129;-66
2021/06/06 07:20:26;;;;;;;7.70;5.88;;;19.50;99.90;;;;;;5052446;28;20064;-65
2021/06/06 07:22:52;;;;;;;7.60;6.03;;;19.60;99.90;;;;;;5034064;28;20029;-65
2021/06/06 07:25:18;;;;;;;7.50;5.60;;;19.60;99.90;;;;;;5052663;28;20029;-66
2021/06/06 07:27:45;;;;;;;10.25;6.47;;;19.70;99.90;;;;;;5034091;28;20455;-67
2021/06/06 07:30:14;;;;;;;7.90;6.40;;;19.70;99.90;;;;;;5052792;28;20021;-66
2021/06/06 07:32:41;;;;;;;6.43;5.40;;;19.70;99.90;;;;;;5034185;28;20052;-66
2021/06/06 07:35:07;;;;;;;9.38;6.35;;;19.60;99.90;;;;;;5034479;28;20052;-66
2021/06/06 07:37:34;;;;;;;9.00;6.00;;;19.60;99.90;;;;;;5034619;28;20112;-66
2021/06/06 07:40:00;;;;;;;7.35;5.65;;;19.70;99.90;;;;;;5051811;28;20112;-66
2021/06/06 07:42:26;;;;;;;6.75;5.30;;;19.80;99.90;;;;;;5034440;28;20096;-66
2021/06/06 07:44:52;;;;;;;8.70;5.82;;;19.70;99.90;;;;;;5051427;28;20024;-66
2021/06/06 07:47:17;;;;;;;9.20;5.15;;;19.70;99.90;;;;;;5052278;28;20137;-66
2021/06/06 07:49:43;;;;;;;7.70;6.35;;;19.70;99.90;;;;;;5051966;28;20378;-65
2021/06/06 07:52:10;;;;;;;6.35;5.72;;;19.70;99.90;;;;;;5030067;28;20073;-64
2021/06/06 07:54:35;;;;;;;7.45;5.55;;;19.50;99.90;;;;;;5031720;28;20371;-64
2021/06/06 07:57:03;;;;;;;5.32;4.72;;;19.40;99.90;;;;;;5030814;28;20055;-66
2021/06/06 07:59:29;;;;;;;6.22;4.80;;;19.60;99.90;;;;;;5030420;28;20470;-65
2021/06/06 08:01:55;;;;;;;6.55;5.55;;;19.60;99.90;;;;;;5029673;28;20144;-64
2021/06/06 08:04:21;;;;;;;7.68;5.43;;;19.70;99.90;;;;;;5031198;28;20029;-65
2021/06/06 08:06:47;;;;;;;4.43;4.03;;;19.60;99.90;;;;;;5031195;28;20084;-66
2021/06/06 08:09:13;;;;;;;5.78;4.72;;;20.00;99.90;;;;;;5031937;28;20017;-65
2021/06/06 08:11:39;;;;;;;5.38;3.92;;;20.20;99.90;;;;;;5030684;28;20407;-68
2021/06/06 08:14:05;;;;;;;4.70;3.92;;;20.50;99.90;;;;;;5030369;28;20040;-69
2021/06/06 08:16:31;;;;;;;7.35;4.10;;;20.50;99.90;;;;;;5030305;28;20037;-65
2021/06/06 08:18:58;;;;;;;4.13;3.55;;;20.50;99.90;;;;;;5029697;28;20120;-66
2021/06/06 08:21:30;;;;;;;4.60;3.30;;;20.60;99.90;;;;;;5029801;28;20037;-66
2021/06/06 08:23:56;;;;;;;5.72;3.53;;;20.50;99.90;;;;;;5030334;28;20025;-66
2021/06/06 08:26:24;;;;;;;3.83;3.40;;;20.50;99.90;;;;;;5031354;28;20196;-65
2021/06/06 08:28:51;;;;;;;4.88;3.45;;;20.50;99.90;;;;;;5030533;28;20026;-67
2021/06/06 08:31:21;;;;;;;3.78;3.33;;;20.60;99.90;;;;;;5031365;28;20144;-66
2021/06/06 08:33:47;;;;;;;3.42;3.13;;;20.40;99.90;;;;;;5028442;28;20142;-66
2021/06/06 08:36:20;;;;;;;4.57;3.92;;;20.60;99.90;;;;;;5030821;28;20029;-66
2021/06/06 08:38:46;;;;;;;4.45;3.28;;;20.50;99.90;;;;;;5028972;28;20095;-66
2021/06/06 08:41:19;;;;;;;3.75;3.17;;;20.40;99.90;;;;;;5030932;28;20025;-66
2021/06/06 08:43:47;;;;;;;5.32;3.75;;;20.60;99.90;;;;;;5028823;28;20083;-66
2021/06/06 08:46:14;;;;;;;4.47;2.97;;;20.70;99.90;;;;;;5029462;28;20053;-66
2021/06/06 08:48:41;;;;;;;3.80;3.40;;;20.70;99.90;;;;;;5030129;28;20482;-76
2021/06/06 08:51:30;;;;;;;3.70;2.60;;;20.80;99.90;;;;;;5035021;28;20123;-66
2021/06/06 08:54:03;;;;;;;3.42;3.00;;;20.80;99.90;;;;;;5031701;28;20116;-66
2021/06/06 08:56:35;;;;;;;3.55;2.90;;;20.80;99.90;;;;;;5050095;28;20116;-67
2021/06/06 08:59:17;;;;;;;3.88;2.88;;;20.90;99.90;;;;;;5031426;28;20347;-66
2021/06/06 09:01:47;;;;;;;4.55;2.95;;;21.10;99.90;;;;;;5049462;28;20447;-67
2021/06/06 09:04:21;;;;;;;4.00;3.25;;;21.40;99.90;;;;;;5032314;28;20033;-68
2021/06/06 09:07:01;;;;;;;6.00;2.65;;;21.40;99.90;;;;;;5031866;28;20128;-66
2021/06/06 09:09:30;;;;;;;4.38;3.10;;;21.80;99.90;;;;;;5050615;28;20105;-66
2021/06/06 09:12:02;;;;;;;3.10;2.70;;;21.70;99.90;;;;;;5050053;28;20489;-66
2021/06/06 09:14:28;;;;;;;4.03;3.63;;;21.80;99.90;;;;;;5031628;28;20386;-67
2021/06/06 09:17:05;;;;;;;4.65;3.72;;;21.80;99.90;;;;;;5031018;28;20035;-66
2021/06/06 09:19:42;;;;;;;3.70;2.88;;;21.80;99.90;;;;;;5049906;28;20036;-67
2021/06/06 09:22:08;;;;;;;4.00;3.33;;;21.90;99.90;;;;;;5031165;28;20033;-66
2021/06/06 09:24:43;;;;;;;4.95;3.10;;;22.00;99.90;;;;;;5031259;28;20124;-66
2021/06/06 09:27:23;;;;;;;3.67;3.22;;;22.00;99.90;;;;;;5031817;28;20029;-67
2021/06/06 09:30:15;;;;;;;4.20;2.90;;;22.50;99.90;;;;;;5048942;28;20114;-67
2021/06/06 09:32:43;;;;;;;6.28;3.47;;;22.40;99.90;;;;;;5031403;28;20025;-66
2021/06/06 09:35:30;;;;;;;3.20;2.90;;;22.40;99.90;;;;;;5049675;28;20027;-65
2021/06/06 09:38:03;;;;;;;3.38;3.08;;;22.70;99.90;;;;;;5048734;28;20029;-67
2021/06/06 09:40:39;;;;;;;4.38;3.45;;;23.00;99.90;;;;;;5049616;28;20079;-65
2021/06/06 09:43:05;;;;;;;3.63;3.33;;;22.90;99.90;;;;;;5048490;28;20060;-66
2021/06/06 09:45:37;;;;;;;4.18;3.75;;;23.00;99.90;;;;;;5048796;28;20020;-66
2021/06/06 09:48:16;;;;;;;4.53;3.75;;;23.00;99.90;;;;;;5030488;28;20063;-66
2021/06/06 09:50:51;;;;;;;4.60;4.20;;;23.20;99.90;;;;;;5030314;28;20033;-66
2021/06/06 09:53:25;;;;;;;4.75;3.78;;;23.30;99.90;;;;;;5031344;28;20052;-65
2021/06/06 09:55:52;;;;;;;4.95;3.80;;;23.50;99.90;;;;;;5030305;28;20021;-65
2021/06/06 09:58:23;;;;;;;3.78;3.47;;;23.50;99.90;;;;;;5049117;28;20373;-66
2021/06/06 10:00:52;;;;;;;5.38;4.38;;;23.40;99.90;;;;;;5048650;28;20079;-66
2021/06/06 10:03:36;;;;;;;4.00;3.47;;;23.30;99.90;;;;;;5031124;28;20025;-66
2021/06/06 10:06:31;;;;;;;4.40;4.00;;;23.50;99.90;;;;;;5030434;28;20124;-66
2021/06/06 10:09:23;;;;;;;5.28;4.78;;;23.60;99.90;;;;;;5030353;28;20114;-66
2021/06/06 10:12:32;;;;;;;5.90;4.53;;;23.90;99.90;;;;;;5030662;28;20390;-66
2021/06/06 10:15:20;;;;;;;5.00;4.40;;;24.10;99.90;;;;;;4967506;28;20398;-66
2021/06/06 10:17:56;;;;;;;3.60;3.30;;;25.10;99.90;;;;;;4951353;28;20035;-77
2021/06/06 10:20:28;;;;;;;4.10;3.70;;;25.40;99.20;;;;;;4951901;28;20247;-65
2021/06/06 10:23:14;;;;;;;3.92;3.60;;;25.40;98.70;;;;;;4950976;28;20368;-66
2021/06/06 10:25:53;;;;;;;7.22;3.72;;;25.20;98.60;;;;;;4951696;28;20035;-65
2021/06/06 10:28:29;;;;;;;4.05;3.38;;;25.60;99.00;;;;;;4951386;28;20031;-65
2021/06/06 10:31:01;;;;;;;4.45;3.15;;;25.80;99.00;;;;;;4967784;28;20046;-65
2021/06/06 10:33:44;;;;;;;4.22;3.83;;;25.90;98.90;;;;;;4967942;28;20092;-66
2021/06/06 10:36:12;;;;;;;3.83;3.13;;;25.80;99.00;;;;;;4951106;28;20085;-66
2021/06/06 10:38:40;;;;;;;4.47;4.03;;;25.70;99.00;;;;;;4967998;28;20085;-66
2021/06/06 10:41:47;;;;;;;6.03;3.78;;;24.90;99.00;;;;;;4951376;28;20157;-65
2021/06/06 10:44:22;;;;;;;3.80;3.50;;;24.80;99.60;;;;;;4951388;28;20045;-65
2021/06/06 10:47:13;;;;;;;6.75;4.28;;;24.90;99.50;;;;;;5044790;28;20465;-80
2021/06/06 10:49:46;;;;;;;8.07;3.88;;;24.70;99.30;;;;;;5030694;28;20025;-66
2021/06/06 10:52:32;;;;;;;4.63;3.58;;;24.80;99.70;;;;;;5030262;28;20052;-66
2021/06/06 10:55:26;;;;;;;4.38;3.92;;;24.40;99.80;;;;;;5030033;28;20106;-65
2021/06/06 10:57:52;;;;;;;4.07;3.67;;;24.00;99.90;;;;;;5051002;28;20443;-68
2021/06/06 11:00:18;;;;;;;7.70;4.20;;;24.60;99.90;;;;;;5052424;28;20109;-66
2021/06/06 11:02:49;;;;;;;4.97;3.63;;;24.90;99.70;;;;;;5034143;28;20094;-66
2021/06/06 11:05:39;;;;;;;6.05;3.65;;;24.90;99.70;;;;;;5051664;28;20029;-66
2021/06/06 11:08:27;;;;;;;5.72;3.72;;;24.60;99.80;;;;;;5051567;28;20492;-66
2021/06/06 11:10:53;;;;;;;4.18;3.78;;;24.50;99.90;;;;;;5032869;28;20108;-66
2021/06/06 11:13:46;;;;;;;4.57;4.07;;;24.10;99.90;;;;;;5052268;28;20036;-66
2021/06/06 11:16:17;;;;;;;6.07;4.22;;;23.90;99.90;;;;;;5050909;28;22237;-66
2021/06/06 11:18:50;;;;;;;4.03;3.60;;;23.60;99.90;;;;;;5051809;28;20028;-66
2021/06/06 11:21:28;;;;;;;6.22;3.88;;;23.50;99.90;;;;;;5033406;28;20324;-66
2021/06/06 11:23:57;;;;;;;5.90;4.18;;;23.40;99.90;;;;;;5051702;28;20044;-66
2021/06/06 11:26:39;;;;;;;5.57;3.42;;;23.40;99.90;;;;;;5033820;28;20025;-65
2021/06/06 11:29:13;;;;;;;5.95;4.13;;;23.40;99.90;;;;;;5033203;28;20028;-66
2021/06/06 11:31:58;;;;;;;6.88;5.28;;;23.40;99.90;;;;;;5033030;28;20442;-65
2021/06/06 11:34:33;;;;;;;6.55;4.57;;;23.20;99.90;;;;;;5051472;28;20044;-67
2021/06/06 11:37:15;;;;;;;5.35;4.32;;;23.20;99.90;;;;;;5050950;28;20389;-66
2021/06/06 11:39:47;;;;;;;5.32;4.82;;;23.30;99.90;;;;;;5033795;28;20386;-66
2021/06/06 11:42:21;;;;;;;6.13;5.30;;;23.40;99.90;;;;;;5032929;28;20160;-67
2021/06/06 11:44:53;;;;;;;8.75;5.05;;;23.20;99.90;;;;;;5033108;28;20056;-66
2021/06/06 11:47:27;;;;;;;7.90;5.03;;;23.10;99.90;;;;;;5033111;28;20032;-69
2021/06/06 11:50:28;;;;;;;6.70;5.13;;;23.20;99.90;;;;;;5051203;28;20029;-67
2021/06/06 11:53:08;;;;;;;6.80;5.47;;;23.40;99.90;;;;;;4998944;28;20041;-66
2021/06/06 11:55:41;;;;;;;6.43;4.78;;;23.30;99.90;;;;;;5031585;28;20029;-65
2021/06/06 11:58:18;;;;;;;5.20;4.63;;;23.40;99.90;;;;;;5031181;28;20125;-66
2021/06/06 12:01:01;;;;;;;5.20;4.75;;;23.50;99.90;;;;;;5031887;28;20160;-67
2021/06/06 12:03:30;;;;;;;6.07;4.38;;;23.40;99.90;;;;;;5029999;28;20203;-66
2021/06/06 12:06:20;;;;;;;6.53;4.07;;;23.40;99.90;;;;;;5030352;28;20458;-67
2021/06/06 12:08:50;;;;;;;5.10;4.32;;;23.40;99.90;;;;;;5028551;28;20109;-65
2021/06/06 12:11:15;;;;;;;6.30;4.68;;;23.40;99.90;;;;;;5028758;28;20439;-65
2021/06/06 12:13:42;;;;;;;4.43;3.85;;;23.30;99.90;;;;;;5029069;28;20077;-65
2021/06/06 12:16:19;;;;;;;4.43;3.55;;;23.30;99.90;;;;;;5030355;28;20021;-66
2021/06/06 12:18:48;;;;;;;4.43;3.70;;;23.40;99.90;;;;;;5031037;28;20087;-66
2021/06/06 12:21:21;;;;;;;7.30;4.40;;;23.40;99.90;;;;;;5044824;28;20087;-66
2021/06/06 12:24:12;;;;;;;9.02;4.65;;;23.40;99.90;;;;;;5030412;28;20487;-66
2021/06/06 12:26:43;;;;;;;7.38;4.60;;;23.20;99.90;;;;;;5015433;28;20046;-65
2021/06/06 12:29:10;;;;;;;4.85;4.38;;;23.40;99.90;;;;;;5028222;28;20040;-66
2021/06/06 12:31:45;;;;;;;5.40;4.30;;;23.40;99.90;;;;;;5028766;28;20507;-66
2021/06/06 12:34:15;;;;;;;5.75;4.20;;;23.50;99.90;;;;;;5028306;28;20131;-66
2021/06/06 12:36:42;;;;;;;4.68;3.80;;;23.90;99.90;;;;;;5030095;28;20029;-66
2021/06/06 12:39:10;;;;;;;7.07;4.35;;;24.40;99.90;;;;;;5029881;28;20439;-66
2021/06/06 12:41:42;;;;;;;4.80;4.35;;;24.30;99.90;;;;;;5028669;28;20451;-66
2021/06/06 12:44:10;;;;;;;6.22;4.68;;;24.20;99.90;;;;;;5029459;28;20420;-66
2021/06/06 12:46:53;;;;;;;5.70;4.90;;;24.00;99.90;;;;;;5028344;28;20179;-65
2021/06/06 12:49:29;;;;;;;5.40;4.90;;;23.60;99.90;;;;;;5029424;28;20032;-65
2021/06/06 12:51:55;;;;;;;4.75;4.22;;;23.50;99.90;;;;;;5040496;28;20068;-78
2021/06/06 12:54:27;;;;;;;5.18;4.70;;;23.30;99.90;;;;;;5049825;28;20029;-65
2021/06/06 12:57:18;;;;;;;5.20;4.70;;;23.30;99.90;;;;;;5049831;28;20063;-66
2021/06/06 12:59:45;;;;;;;5.57;5.07;;;22.90;99.90;;;;;;5032015;28;20047;-65